This is the latest recevied weather packets stored in our database for station/object CE3UOB-10. If no packets are shown the sender has not sent any weather packets the latest 10 day(s).
| Time | Temp. | Humidity | Pressure | Rain* | Wind** | Luminosity | Snow |
|---|---|---|---|---|---|---|---|
| 1777862915 | 12.78° C | 45% | 996.9 hPa | - | - | - | - |
| 1777861123 | 13.33° C | 45% | 996.7 hPa | - | - | - | - |
| 1777861113 | 13.33° C | 45% | 996.7 hPa | - | - | - | - |
| 1777859324 | 12.78° C | 46% | 996.8 hPa | - | - | - | - |
| 1777859319 | 12.78° C | 46% | 996.8 hPa | - | - | - | - |
| 1777857518 | 13.33° C | 43% | 996.6 hPa | - | - | - | - |
| 1777855718 | 13.89° C | 45% | 996.6 hPa | - | - | - | - |
| 1777853918 | 15.56° C | 43% | 996.5 hPa | - | - | - | - |
| 1777852118 | 16.67° C | 42% | 996.2 hPa | - | - | - | - |
| 1777850318 | 17.22° C | 41% | 996.1 hPa | - | - | - | - |
| 1777848518 | 18.33° C | 33% | 996 hPa | - | - | - | - |
| 1777846717 | 19.44° C | 37% | 995.7 hPa | - | - | - | - |
| 1777844924 | 20° C | 41% | 995.3 hPa | - | - | - | - |
| 1777844917 | 20° C | 41% | 995.3 hPa | - | - | - | - |
| 1777843124 | 20° C | 42% | 994.8 hPa | - | - | - | - |
| 1777843117 | 20° C | 42% | 994.8 hPa | - | - | - | - |
| 1777841324 | 20.56° C | 39% | 994.7 hPa | - | - | - | - |
| 1777841317 | 20.56° C | 39% | 994.7 hPa | - | - | - | - |
| 1777839515 | 21.67° C | 33% | 994.3 hPa | - | - | - | - |
| 1777838264 | 20° C | 41% | 994.3 hPa | - | - | - | - |
| 1777836464 | 20° C | 46% | 994.2 hPa | - | - | - | - |
| 1777834663 | 20° C | 46% | 994.4 hPa | - | - | - | - |
| 1777832863 | 18.89° C | 43% | 994.7 hPa | - | - | - | - |
| 1777831063 | 20° C | 31% | 994.9 hPa | - | - | - | - |
| 1777829263 | 16.11° C | 61% | 994.9 hPa | - | - | - | - |
* Rain since midnight (hover to see other rain measurements)
** Current wind speed in m/s (hover to see current wind gust speed)